createdAt,value
2018-10-19T00:27:06.152Z,2.77
2018-10-19T00:38:32.570Z,5.67
2018-10-19T00:43:53.543Z,7.23
2018-10-19T00:46:21.618Z,7.63
2018-10-19T00:48:49.686Z,12.90
2018-10-19T00:51:17.789Z,6.13
2018-10-19T00:53:45.868Z,6.57
2018-10-19T00:56:13.982Z,7.17
2018-10-19T00:58:42.078Z,6.77
2018-10-19T01:01:10.157Z,8.83
2018-10-19T01:03:38.223Z,7.40
2018-10-19T01:06:06.349Z,11.47
2018-10-19T01:08:34.455Z,9.23
2018-10-19T01:11:02.613Z,14.43
2018-10-19T01:28:35.080Z,6.10
2018-10-19T01:34:28.178Z,7.57
2018-10-19T01:42:41.102Z,9.60
2018-10-19T01:45:10.846Z,10.77
2018-10-19T01:47:39.649Z,7.53
2018-10-19T01:50:08.313Z,8.37
2018-10-19T01:52:36.401Z,11.17
2018-10-19T01:55:04.570Z,6.77
2018-10-19T01:57:32.637Z,11.40
2018-10-19T02:00:00.728Z,10.40
2018-10-19T02:02:28.818Z,7.30
2018-10-19T02:04:56.913Z,9.70
2018-10-19T02:07:25.018Z,9.47
2018-10-19T02:09:53.093Z,11.07
2018-10-19T02:12:21.214Z,10.93
2018-10-19T02:26:50.648Z,18.27
2018-10-19T02:29:18.731Z,9.73
2018-10-19T02:34:55.960Z,11.47
2018-10-19T02:37:24.026Z,12.03
2018-10-19T02:39:52.158Z,10.20
2018-10-19T04:28:41.478Z,7.93
2018-10-19T04:37:06.401Z,6.33
2018-10-19T04:42:26.740Z,9.00
2018-10-19T04:44:54.769Z,7.37
2018-10-19T04:47:22.862Z,7.37
2018-10-19T04:49:50.945Z,7.97
2018-10-19T04:52:19.025Z,7.60
2018-10-19T04:54:47.165Z,5.17
2018-10-19T04:57:15.363Z,5.83
2018-10-19T04:59:43.363Z,6.13
2018-10-19T05:02:11.447Z,9.03
2018-10-19T05:04:39.603Z,7.93
2018-10-19T05:07:07.653Z,7.57
2018-10-19T05:09:35.738Z,8.87
2018-10-19T05:12:03.801Z,6.23
2018-10-19T05:48:39.887Z,8.47
2018-10-19T05:51:08.444Z,8.90
2018-10-19T05:53:36.578Z,9.83
2018-10-19T05:56:04.903Z,9.93
2018-10-19T05:58:32.958Z,11.37
2018-10-19T06:01:01.043Z,7.57
2018-10-19T06:03:29.134Z,9.07
2018-10-19T06:05:57.225Z,7.97
2018-10-19T06:08:25.318Z,9.50
2018-10-19T06:10:53.442Z,11.80
2018-10-19T06:13:39.515Z,10.03
2018-10-19T06:16:07.598Z,9.47
2018-10-19T06:18:35.694Z,9.13
2018-10-19T06:23:56.558Z,10.53
2018-10-19T06:26:28.528Z,22.70
2018-10-19T06:29:03.323Z,8.40
2018-10-19T06:31:31.398Z,12.40
2018-10-19T06:33:59.488Z,14.83
2018-10-19T06:36:27.588Z,9.03
2018-10-19T06:38:55.890Z,7.93
2018-10-19T06:41:24.155Z,12.27
2018-10-19T06:43:52.257Z,10.13
2018-10-19T06:46:20.457Z,8.97
2018-10-19T06:48:48.597Z,14.33
2018-10-19T06:51:16.689Z,12.70
2018-10-19T06:53:44.758Z,8.13
2018-10-19T06:56:13.019Z,10.47
2018-10-19T06:58:41.020Z,19.27
2018-10-19T07:01:09.141Z,11.77
2018-10-19T07:03:37.274Z,10.00
2018-10-19T07:06:05.683Z,14.67
2018-10-19T07:08:33.749Z,9.03
2018-10-19T07:11:01.933Z,11.43
2018-10-19T07:22:22.624Z,11.53
2018-10-19T07:24:51.066Z,9.90
2018-10-19T07:27:19.230Z,11.47
2018-10-19T07:29:47.327Z,12.53
2018-10-19T07:32:15.495Z,11.10
2018-10-19T07:34:43.609Z,11.17
2018-10-19T07:37:11.710Z,10.03
2018-10-19T07:39:39.781Z,9.27
2018-10-19T07:42:07.939Z,10.70
2018-10-19T07:44:36.005Z,11.63
2018-10-19T07:47:04.122Z,19.50
2018-10-19T07:49:32.209Z,16.13
2018-10-19T07:52:00.342Z,16.47
2018-10-19T07:54:28.451Z,13.27
2018-10-19T07:56:56.521Z,12.50
2018-10-19T07:59:24.577Z,9.70
2018-10-19T08:01:52.658Z,12.83
2018-10-19T08:04:20.737Z,11.27
2018-10-19T08:06:48.865Z,12.47
2018-10-19T08:09:16.962Z,15.67
2018-10-19T08:11:45.041Z,15.07
2018-10-19T08:26:31.778Z,8.47
2018-10-19T08:28:59.889Z,8.17
2018-10-19T08:31:27.946Z,9.20
2018-10-19T08:33:56.038Z,8.30
2018-10-19T08:36:24.240Z,8.87
2018-10-19T08:38:52.337Z,6.53
2018-10-19T08:41:20.593Z,7.10
2018-10-19T08:43:48.646Z,5.67
2018-10-19T08:46:22.001Z,7.13
2018-10-19T08:48:50.101Z,9.07
2018-10-19T08:51:18.338Z,5.43
2018-10-19T08:53:46.322Z,5.33
2018-10-19T08:56:14.400Z,7.40
2018-10-19T08:58:42.490Z,3.43
2018-10-19T09:01:10.573Z,6.70
2018-10-19T09:03:38.724Z,6.40
2018-10-19T09:06:06.823Z,5.60
2018-10-19T09:08:34.877Z,2.93
2018-10-19T09:11:03.047Z,5.10
2018-10-19T09:13:31.051Z,4.93
2018-10-19T09:15:59.126Z,6.70
2018-10-19T09:18:27.540Z,6.10
2018-10-19T09:26:50.161Z,5.43
2018-10-19T09:29:18.206Z,5.60
2018-10-19T09:31:46.301Z,2.87
2018-10-19T09:34:14.389Z,5.50
2018-10-19T09:36:42.552Z,5.60
2018-10-19T09:39:12.768Z,3.90
2018-10-19T09:41:40.809Z,5.10
2018-10-19T09:44:08.911Z,4.13
2018-10-19T09:46:39.164Z,7.00
2018-10-19T09:49:07.980Z,6.77
2018-10-19T09:51:36.572Z,5.30
2018-10-19T09:54:04.681Z,4.23
2018-10-19T09:56:32.797Z,4.80
2018-10-19T09:59:00.988Z,5.40
2018-10-19T10:01:30.095Z,6.57
2018-10-19T10:03:58.346Z,6.23
2018-10-19T10:06:26.495Z,6.37
2018-10-19T10:08:54.807Z,6.10
2018-10-19T10:11:22.837Z,4.60
2018-10-19T10:23:03.802Z,4.73
2018-10-19T11:19:53.068Z,4.60
2018-10-19T11:22:35.600Z,4.43
2018-10-19T11:25:03.746Z,3.13
2018-10-19T12:16:06.269Z,5.57
2018-10-19T12:18:34.424Z,5.80
2018-10-19T12:29:51.086Z,3.73
2018-10-19T12:32:19.175Z,5.23
2018-10-19T12:34:47.259Z,4.87
2018-10-19T12:37:15.466Z,4.83
2018-10-19T12:39:43.548Z,4.40
2018-10-19T12:42:11.611Z,4.87
2018-10-19T12:44:39.689Z,2.23
2018-10-19T12:47:19.125Z,4.80
2018-10-19T12:49:47.210Z,4.40
2018-10-19T12:52:15.327Z,6.37
2018-10-19T12:54:43.404Z,6.07
2018-10-19T12:57:11.555Z,4.47
2018-10-19T12:59:39.592Z,5.40
2018-10-19T13:02:11.717Z,3.10
2018-10-19T13:04:39.799Z,7.67
2018-10-19T13:07:08.216Z,5.60
2018-10-19T13:09:36.220Z,4.63
2018-10-19T13:12:04.381Z,3.63
2018-10-19T14:15:20.698Z,5.17
2018-10-19T14:17:48.806Z,9.33
2018-10-19T14:20:16.882Z,4.77
2018-10-19T14:22:44.970Z,5.80
2018-10-19T14:25:13.725Z,8.43
2018-10-19T14:28:44.335Z,5.77
2018-10-19T14:31:12.435Z,6.77
2018-10-19T14:33:40.586Z,5.03
2018-10-19T14:36:08.634Z,6.60
2018-10-19T14:38:36.773Z,4.43
2018-10-19T14:41:04.914Z,4.50
2018-10-19T14:43:32.950Z,6.47
2018-10-19T14:46:01.043Z,6.83
2018-10-19T14:48:29.144Z,6.43
2018-10-19T14:50:57.250Z,4.53
2018-10-19T14:53:25.293Z,9.60
2018-10-19T14:55:53.373Z,4.53
2018-10-19T14:58:21.496Z,5.53
2018-10-19T15:00:49.621Z,4.33
2018-10-19T15:03:17.714Z,5.37
2018-10-19T15:05:45.797Z,5.20
2018-10-19T15:08:13.905Z,8.17
2018-10-19T15:10:42.136Z,6.60
2018-10-19T15:13:10.062Z,9.80
2018-10-19T15:15:38.235Z,7.47
2018-10-19T15:18:06.389Z,8.17
2018-10-19T15:26:28.982Z,7.70
2018-10-19T15:28:57.113Z,4.57
2018-10-19T15:31:25.149Z,6.43
2018-10-19T15:33:53.282Z,6.03
2018-10-19T15:36:21.379Z,3.57
2018-10-19T15:38:49.497Z,11.50
2018-10-19T15:41:17.623Z,9.10
2018-10-19T15:43:46.060Z,6.13
2018-10-19T15:46:14.175Z,7.57
2018-10-19T15:48:42.272Z,4.53
2018-10-19T15:51:10.395Z,6.07
2018-10-19T15:53:38.508Z,10.37
2018-10-19T16:18:55.074Z,7.07
2018-10-19T16:21:23.141Z,11.57
2018-10-19T16:23:57.851Z,12.33
2018-10-19T16:26:35.884Z,11.73
2018-10-19T16:29:04.034Z,7.17
2018-10-19T17:17:03.609Z,12.20
2018-10-19T17:19:31.720Z,12.13
2018-10-19T17:22:18.589Z,14.00
2018-10-19T17:25:07.049Z,16.83
2018-10-19T17:30:27.532Z,11.43
2018-10-19T17:32:55.639Z,11.67
2018-10-19T17:35:23.699Z,13.93
2018-10-19T17:37:52.608Z,11.33
2018-10-19T17:40:20.701Z,15.53
2018-10-19T17:42:48.905Z,14.07
2018-10-19T17:45:17.101Z,16.90
2018-10-19T17:47:45.151Z,19.03
2018-10-19T17:50:13.314Z,15.73
2018-10-19T17:52:41.421Z,17.57
2018-10-19T17:55:10.414Z,16.80
2018-10-19T17:57:38.985Z,15.03
2018-10-19T18:00:08.324Z,12.20
2018-10-19T18:02:36.341Z,10.10
2018-10-19T18:05:04.673Z,13.27
2018-10-19T18:07:32.754Z,18.27
2018-10-19T18:10:00.853Z,12.00
2018-10-19T18:12:28.993Z,14.93
2018-10-19T18:14:57.105Z,17.40
2018-10-19T18:17:25.194Z,14.60
2018-10-19T18:22:45.940Z,12.53
2018-10-19T18:25:14.022Z,14.00
2018-10-19T19:25:26.225Z,12.33
2018-10-19T19:31:08.990Z,14.10
2018-10-19T19:33:42.321Z,13.33
2018-10-19T19:36:10.461Z,11.57
2018-10-19T19:38:38.569Z,15.87
2018-10-19T19:41:12.093Z,13.90
2018-10-19T19:43:40.192Z,13.93
2018-10-19T19:46:08.274Z,12.83
2018-10-19T19:48:41.734Z,15.83
2018-10-19T19:51:09.832Z,12.13
2018-10-19T19:53:37.977Z,13.60
2018-10-19T19:56:06.112Z,12.73
2018-10-19T19:58:34.203Z,10.83
2018-10-19T20:01:02.301Z,15.03
2018-10-19T20:03:30.428Z,14.53
2018-10-19T20:05:58.575Z,12.40
2018-10-19T20:08:27.049Z,13.60
2018-10-19T20:10:55.191Z,12.73
2018-10-19T21:15:14.936Z,13.67
2018-10-19T21:17:44.219Z,13.43
2018-10-19T21:20:23.272Z,10.93
2018-10-19T21:22:51.455Z,12.77
2018-10-19T22:13:56.183Z,15.80
2018-10-19T22:16:24.301Z,14.90
2018-10-19T22:18:52.648Z,12.60
2018-10-19T22:21:26.636Z,10.33
2018-10-19T22:23:54.796Z,9.80
2018-10-19T23:20:54.005Z,7.70
